Time;durP1;ratioP1;P1;durP2;ratioP2;P2;SDS_P1;SDS_P2;PMS_P1;PMS_P2;Temp;Humidity;BMP_temperature;BMP_pressure;BME280_temperature;BME280_humidity;BME280_pressure;Samples;Min_cycle;Max_cycle;Signal;HPM_P1;HPM_P2
2023/11/15 00:01:29;;;;;;;4.15;3.60;;;;;;;;;;12850982;22;20023;-68
2023/11/15 00:06:25;;;;;;;4.88;3.42;;;;;;;;;;12885040;22;20018;-68
2023/11/15 00:11:22;;;;;;;6.22;4.07;;;;;;;;;;12879195;22;20093;-68
2023/11/15 00:16:18;;;;;;;7.28;4.00;;;;;;;;;;12885581;22;20023;-67
2023/11/15 00:21:15;;;;;;;5.13;4.03;;;;;;;;;;12884275;22;20019;-66
2023/11/15 00:26:11;;;;;;;5.63;4.30;;;;;;;;;;12885926;22;20022;-67
2023/11/15 00:31:09;;;;;;;7.10;4.53;;;;;;;;;;12885017;22;20029;-68
2023/11/15 00:36:05;;;;;;;5.40;4.00;;;;;;;;;;12885008;22;20023;-67
2023/11/15 00:41:04;;;;;;;5.15;3.92;;;;;;;;;;12883931;22;20025;-68
2023/11/15 00:46:00;;;;;;;4.53;3.70;;;;;;;;;;12885066;22;20019;-68
2023/11/15 00:50:57;;;;;;;4.85;4.22;;;;;;;;;;12884238;22;20022;-67
2023/11/15 00:55:53;;;;;;;5.35;3.83;;;;;;;;;;12883129;22;20023;-67
2023/11/15 01:00:54;;;;;;;5.07;4.13;;;;;;;;;;12857221;22;20021;-67
2023/11/15 01:05:55;;;;;;;6.13;4.13;;;;;;;;;;12878040;22;20015;-68
2023/11/15 01:10:52;;;;;;;5.05;4.13;;;;;;;;;;12882662;22;20065;-68
2023/11/15 01:15:49;;;;;;;4.75;4.25;;;;;;;;;;12880068;22;20064;-68
2023/11/15 01:20:46;;;;;;;4.80;4.25;;;;;;;;;;12884085;22;20356;-68
2023/11/15 01:25:42;;;;;;;5.80;4.85;;;;;;;;;;12887541;22;20120;-68
2023/11/15 01:30:39;;;;;;;5.90;4.40;;;;;;;;;;12887031;22;20487;-67
2023/11/15 01:35:36;;;;;;;7.55;5.30;;;;;;;;;;12886737;22;20444;-67
2023/11/15 01:40:34;;;;;;;6.60;5.22;;;;;;;;;;12883636;22;20015;-68
2023/11/15 01:45:31;;;;;;;6.53;5.78;;;;;;;;;;12885627;22;20022;-68
2023/11/15 01:50:27;;;;;;;7.93;5.93;;;;;;;;;;12885133;22;20026;-67
2023/11/15 01:55:24;;;;;;;7.57;6.80;;;;;;;;;;12886796;22;20076;-68
2023/11/15 02:00:20;;;;;;;9.85;6.97;;;;;;;;;;12886746;22;20018;-69
2023/11/15 02:05:16;;;;;;;8.48;7.35;;;;;;;;;;12884296;22;20023;-67
2023/11/15 02:10:13;;;;;;;9.32;7.50;;;;;;;;;;12879008;22;20789;-70
2023/11/15 02:15:10;;;;;;;8.50;7.30;;;;;;;;;;12880632;22;20322;-69
2023/11/15 02:20:08;;;;;;;9.05;7.88;;;;;;;;;;12886270;22;20064;-70
2023/11/15 02:25:05;;;;;;;10.07;8.45;;;;;;;;;;12885367;22;20050;-68
2023/11/15 02:30:01;;;;;;;11.73;8.88;;;;;;;;;;12887275;22;20015;-69
2023/11/15 02:34:58;;;;;;;9.40;8.25;;;;;;;;;;12887046;22;20018;-69
2023/11/15 02:39:54;;;;;;;10.70;8.80;;;;;;;;;;12885335;22;20030;-69
2023/11/15 02:44:50;;;;;;;9.43;7.60;;;;;;;;;;12886464;22;20549;-67
2023/11/15 02:49:47;;;;;;;8.90;8.00;;;;;;;;;;12886478;22;20014;-70
2023/11/15 02:54:43;;;;;;;12.13;8.50;;;;;;;;;;12885964;22;20352;-70
2023/11/15 02:59:40;;;;;;;9.75;8.15;;;;;;;;;;12885936;22;20026;-69
2023/11/15 03:04:37;;;;;;;9.40;8.23;;;;;;;;;;12885768;22;20364;-68
2023/11/15 03:09:33;;;;;;;9.35;8.00;;;;;;;;;;12876693;22;20468;-68
2023/11/15 03:14:30;;;;;;;10.00;8.40;;;;;;;;;;12885052;22;20031;-68
2023/11/15 03:19:26;;;;;;;11.88;9.27;;;;;;;;;;12879179;22;20377;-69
2023/11/15 03:24:23;;;;;;;9.05;8.13;;;;;;;;;;12886289;22;20420;-67
2023/11/15 03:29:20;;;;;;;8.18;7.38;;;;;;;;;;12857676;22;20026;-67
2023/11/15 03:34:17;;;;;;;8.73;7.82;;;;;;;;;;12884860;22;20030;-68
2023/11/15 03:39:13;;;;;;;9.82;7.85;;;;;;;;;;12884590;22;20023;-68
2023/11/15 03:44:10;;;;;;;9.88;8.65;;;;;;;;;;12885327;22;20030;-69
2023/11/15 03:49:06;;;;;;;9.57;8.30;;;;;;;;;;12883832;22;20025;-68
2023/11/15 03:54:03;;;;;;;9.20;8.30;;;;;;;;;;12885000;22;20080;-68
2023/11/15 03:58:59;;;;;;;8.90;7.22;;;;;;;;;;12884725;22;20026;-69
2023/11/15 04:03:56;;;;;;;8.50;7.60;;;;;;;;;;12883578;22;20026;-68
2023/11/15 04:08:56;;;;;;;9.07;8.00;;;;;;;;;;12884787;22;20027;-68
2023/11/15 04:13:53;;;;;;;7.63;6.88;;;;;;;;;;12878968;22;20456;-69
2023/11/15 04:18:49;;;;;;;9.15;7.75;;;;;;;;;;12875668;22;20048;-67
2023/11/15 04:23:45;;;;;;;8.77;7.88;;;;;;;;;;12853462;22;20022;-67
2023/11/15 04:28:41;;;;;;;8.77;7.95;;;;;;;;;;12879333;22;20562;-68
2023/11/15 04:33:38;;;;;;;9.80;8.73;;;;;;;;;;12881251;22;20054;-70
2023/11/15 04:38:36;;;;;;;9.05;8.13;;;;;;;;;;12880838;22;20023;-70
2023/11/15 04:43:33;;;;;;;8.73;7.68;;;;;;;;;;12856162;22;20030;-71
2023/11/15 04:48:29;;;;;;;10.02;7.82;;;;;;;;;;12881633;22;20030;-69
2023/11/15 04:53:26;;;;;;;10.48;9.38;;;;;;;;;;12885624;22;20022;-73
2023/11/15 04:58:22;;;;;;;9.35;8.35;;;;;;;;;;12883442;22;20076;-71
2023/11/15 05:03:20;;;;;;;11.82;8.68;;;;;;;;;;12861302;22;20043;-72
2023/11/15 05:08:16;;;;;;;11.70;8.52;;;;;;;;;;12887995;22;20069;-70
2023/11/15 05:13:13;;;;;;;9.45;8.45;;;;;;;;;;12885299;22;20479;-72
2023/11/15 05:18:09;;;;;;;8.68;7.88;;;;;;;;;;12882845;22;20023;-71
2023/11/15 05:23:06;;;;;;;8.88;7.43;;;;;;;;;;12847776;22;20086;-72
2023/11/15 05:28:02;;;;;;;7.88;6.97;;;;;;;;;;12887326;22;20128;-71
2023/11/15 05:32:59;;;;;;;8.80;7.80;;;;;;;;;;12886142;22;20495;-71
2023/11/15 05:37:56;;;;;;;8.68;7.80;;;;;;;;;;12885843;22;20035;-71
2023/11/15 05:42:52;;;;;;;10.38;7.38;;;;;;;;;;12883589;22;20472;-73
2023/11/15 05:47:48;;;;;;;8.98;8.07;;;;;;;;;;12884481;22;20531;-73
2023/11/15 05:52:55;;;;;;;9.00;7.93;;;;;;;;;;12850478;22;20034;-74
2023/11/15 05:58:00;;;;;;;8.57;7.78;;;;;;;;;;12853058;22;20050;-72
2023/11/15 06:02:56;;;;;;;9.82;8.82;;;;;;;;;;12822839;22;20097;-71
2023/11/15 06:07:53;;;;;;;9.25;8.13;;;;;;;;;;12820418;22;20080;-72
2023/11/15 06:12:51;;;;;;;8.50;7.70;;;;;;;;;;12821946;22;20662;-72
2023/11/15 06:17:53;;;;;;;8.93;8.00;;;;;;;;;;12822903;22;20030;-71
2023/11/15 06:22:50;;;;;;;8.38;7.68;;;;;;;;;;12812187;22;20063;-72
2023/11/15 06:27:46;;;;;;;7.95;7.25;;;;;;;;;;12820666;22;20019;-74
2023/11/15 06:32:44;;;;;;;8.07;7.28;;;;;;;;;;12818920;22;20019;-74
2023/11/15 06:37:40;;;;;;;10.30;7.70;;;;;;;;;;12822600;22;20031;-74
2023/11/15 06:42:36;;;;;;;8.82;7.60;;;;;;;;;;12821405;22;20456;-72
2023/11/15 06:47:35;;;;;;;8.50;7.68;;;;;;;;;;12823032;22;20034;-74
2023/11/15 06:52:32;;;;;;;8.02;7.22;;;;;;;;;;12823218;22;20020;-73
2023/11/15 06:57:29;;;;;;;7.85;7.05;;;;;;;;;;12822721;22;20031;-74
2023/11/15 07:02:51;;;;;;;8.60;7.80;;;;;;;;;;12817924;22;20023;-74
2023/11/15 07:07:48;;;;;;;8.73;7.88;;;;;;;;;;12814995;22;20360;-74
2023/11/15 07:12:46;;;;;;;11.57;9.45;;;;;;;;;;12878620;22;20088;-74
2023/11/15 07:17:44;;;;;;;8.75;7.85;;;;;;;;;;12883977;22;20022;-74
2023/11/15 07:22:40;;;;;;;11.55;8.45;;;;;;;;;;12885237;22;20023;-74
2023/11/15 07:27:36;;;;;;;9.25;8.45;;;;;;;;;;12885780;22;20752;-73
2023/11/15 07:32:33;;;;;;;9.63;8.73;;;;;;;;;;12885654;22;20027;-74
2023/11/15 07:37:29;;;;;;;8.82;8.02;;;;;;;;;;12884778;22;20384;-74
2023/11/15 07:42:26;;;;;;;8.73;7.90;;;;;;;;;;12884342;22;20357;-74
2023/11/15 07:47:23;;;;;;;8.45;7.45;;;;;;;;;;12885419;22;20104;-74
2023/11/15 07:52:23;;;;;;;8.63;7.72;;;;;;;;;;12857469;22;20023;-75
2023/11/15 07:57:21;;;;;;;9.50;7.82;;;;;;;;;;12884796;22;20026;-74
2023/11/15 08:02:18;;;;;;;8.45;7.65;;;;;;;;;;12884157;22;20022;-75
2023/11/15 08:07:14;;;;;;;8.52;7.72;;;;;;;;;;12885241;22;20403;-74
2023/11/15 08:12:10;;;;;;;8.93;8.07;;;;;;;;;;12884723;22;20069;-74
2023/11/15 08:17:07;;;;;;;9.77;8.07;;;;;;;;;;12885431;22;20046;-75
2023/11/15 08:22:03;;;;;;;11.88;9.00;;;;;;;;;;12883165;22;20022;-73
2023/11/15 08:26:59;;;;;;;10.73;8.85;;;;;;;;;;12857347;22;20019;-74
2023/11/15 08:31:57;;;;;;;12.30;8.10;;;;;;;;;;12884089;22;20019;-75
2023/11/15 08:36:53;;;;;;;11.63;7.60;;;;;;;;;;12885582;22;20383;-74
2023/11/15 08:41:50;;;;;;;10.25;8.73;;;;;;;;;;12883784;22;20475;-74
2023/11/15 08:46:47;;;;;;;9.20;8.30;;;;;;;;;;12884499;22;20408;-74
2023/11/15 08:51:45;;;;;;;9.98;8.43;;;;;;;;;;12883347;22;20091;-74
2023/11/15 08:56:41;;;;;;;9.30;8.40;;;;;;;;;;12884897;22;20030;-74
2023/11/15 09:06:59;;;;;;;11.82;7.53;;;;;;;;;;12820522;22;20019;-73
2023/11/15 09:11:56;;;;;;;8.23;7.43;;;;;;;;;;12820877;22;20441;-74
2023/11/15 09:16:54;;;;;;;8.30;7.50;;;;;;;;;;12826540;22;20057;-74
2023/11/15 09:22:06;;;;;;;;;;;;;;;;;;;;;
2023/11/15 09:27:52;;;;;;;10.05;8.15;;;;;;;;;;12816926;22;20027;-74
2023/11/15 09:32:41;;;;;;;9.13;8.32;;;;;;;;;;12829294;22;20395;-74
2023/11/15 09:37:45;;;;;;;8.90;8.10;;;;;;;;;;12833204;22;20035;-74
2023/11/15 09:43:11;;;;;;;7.80;7.00;;;;;;;;;;12841833;22;20022;-74
2023/11/15 09:48:09;;;;;;;10.00;7.20;;;;;;;;;;12824340;22;20467;-73
2023/11/15 09:53:05;;;;;;;8.73;6.88;;;;;;;;;;12823801;22;20034;-74
2023/11/15 09:58:02;;;;;;;12.40;6.95;;;;;;;;;;12820849;22;20051;-74
2023/11/15 10:02:59;;;;;;;7.28;6.57;;;;;;;;;;12822753;22;20027;-74
2023/11/15 10:08:08;;;;;;;6.95;5.80;;;;;;;;;;12823780;22;20262;-74
2023/11/15 10:13:15;;;;;;;6.60;5.97;;;;;;;;;;12823431;22;20464;-74
2023/11/15 10:18:18;;;;;;;5.90;5.40;;;;;;;;;;12821855;22;20019;-74
2023/11/15 10:23:26;;;;;;;5.82;5.13;;;;;;;;;;12823252;22;20476;-74
2023/11/15 10:28:22;;;;;;;5.60;5.10;;;;;;;;;;12821722;22;20019;-74
2023/11/15 10:33:20;;;;;;;5.45;4.95;;;;;;;;;;12823091;22;20348;-73
2023/11/15 10:38:19;;;;;;;5.40;4.88;;;;;;;;;;12823547;22;20019;-75
2023/11/15 10:43:17;;;;;;;5.53;5.03;;;;;;;;;;12822727;22;20464;-74
2023/11/15 10:48:17;;;;;;;6.70;4.85;;;;;;;;;;12823259;22;20074;-74
2023/11/15 10:53:17;;;;;;;5.38;4.85;;;;;;;;;;12822754;22;20027;-75
2023/11/15 10:58:16;;;;;;;5.32;4.82;;;;;;;;;;12821918;22;20045;-74
2023/11/15 11:03:13;;;;;;;5.57;5.07;;;;;;;;;;12821974;22;20023;-74
2023/11/15 11:08:19;;;;;;;6.10;5.40;;;;;;;;;;12822060;22;20403;-74
2023/11/15 11:13:17;;;;;;;6.07;5.45;;;;;;;;;;12822235;22;20396;-74
2023/11/15 11:18:19;;;;;;;5.40;4.90;;;;;;;;;;12822413;22;20034;-74
2023/11/15 11:23:22;;;;;;;5.60;5.10;;;;;;;;;;12821698;22;20015;-74
2023/11/15 11:28:20;;;;;;;6.15;4.85;;;;;;;;;;12822044;22;20023;-75
2023/11/15 11:33:19;;;;;;;5.80;5.30;;;;;;;;;;12820997;22;20501;-74
2023/11/15 11:38:35;;;;;;;5.72;5.22;;;;;;;;;;12821237;22;20031;-75
2023/11/15 11:43:32;;;;;;;7.18;5.70;;;;;;;;;;12821274;22;20047;-74
2023/11/15 11:48:29;;;;;;;8.75;6.10;;;;;;;;;;12821634;22;20016;-74
2023/11/15 11:59:36;;;;;;;6.65;6.05;;;;;;;;;;12886342;22;20626;-75
2023/11/15 12:22:39;;;;;;;7.88;5.10;;;;;;;;;;12732971;22;20493;-75
2023/11/15 12:28:31;;;;;;;5.53;5.07;;;;;;;;;;12828265;22;20018;-75
2023/11/15 12:33:49;;;;;;;5.55;5.05;;;;;;;;;;12802019;22;20050;-75
2023/11/15 12:39:26;;;;;;;5.72;4.40;;;;;;;;;;12802249;22;20031;-75
2023/11/15 12:44:58;;;;;;;5.20;4.80;;;;;;;;;;12830741;22;20085;-74
2023/11/15 12:51:49;;;;;;;;;;;;;;;;;;;;;
2023/11/15 12:56:27;;;;;;;4.35;3.95;;;;;;;;;;12657008;22;20011;-74
2023/11/15 13:01:27;;;;;;;4.40;4.00;;;;;;;;;;12748421;22;20034;-75
2023/11/15 13:19:10;;;;;;;4.65;4.25;;;;;;;;;;12819965;22;20114;-75
2023/11/15 13:30:26;;;;;;;5.00;4.60;;;;;;;;;;12777682;22;20050;-75
2023/11/15 13:35:45;;;;;;;5.13;4.57;;;;;;;;;;12871350;22;20031;-75
2023/11/15 13:41:20;;;;;;;4.70;4.30;;;;;;;;;;12894161;22;20019;-74
2023/11/15 13:46:37;;;;;;;4.78;4.38;;;;;;;;;;12827132;22;20022;-75
2023/11/15 13:52:10;;;;;;;;;;;;;;;;;;;;;
2023/11/15 13:57:30;;;;;;;5.85;4.82;;;;;;;;;;12885844;22;20158;-75
2023/11/15 14:02:27;;;;;;;5.10;4.35;;;;;;;;;;12911559;22;20019;-75
2023/11/15 14:07:23;;;;;;;4.93;4.20;;;;;;;;;;12887111;22;20109;-75
2023/11/15 14:12:19;;;;;;;6.10;4.38;;;;;;;;;;12887074;22;20402;-75
2023/11/15 14:17:16;;;;;;;5.22;4.68;;;;;;;;;;12886381;22;20467;-75
2023/11/15 14:22:12;;;;;;;6.63;4.50;;;;;;;;;;12885441;22;20023;-75
2023/11/15 14:27:10;;;;;;;4.38;3.97;;;;;;;;;;12886540;22;20031;-75
2023/11/15 14:32:09;;;;;;;5.75;4.25;;;;;;;;;;12884984;22;20031;-75
2023/11/15 14:37:06;;;;;;;5.35;4.30;;;;;;;;;;12886574;22;20030;-75
2023/11/15 14:42:04;;;;;;;5.25;4.20;;;;;;;;;;12885985;22;20030;-75
2023/11/15 14:47:07;;;;;;;4.40;4.00;;;;;;;;;;12859812;22;20027;-75
2023/11/15 14:52:48;;;;;;;4.93;4.50;;;;;;;;;;12857174;22;20027;-74
2023/11/15 14:58:58;;;;;;;4.65;4.25;;;;;;;;;;12703762;22;20023;-75
2023/11/15 15:10:49;;;;;;;;;;;;;;;;;;;;;
2023/11/15 15:27:29;;;;;;;9.95;5.07;;;;;;;;;;12810790;22;20015;-74
2023/11/15 15:32:26;;;;;;;5.78;4.97;;;;;;;;;;12818157;22;20023;-71
2023/11/15 15:37:23;;;;;;;6.70;5.25;;;;;;;;;;12816558;22;20023;-70
2023/11/15 15:42:19;;;;;;;7.38;4.78;;;;;;;;;;12820543;22;20023;-73
2023/11/15 15:47:16;;;;;;;7.82;4.57;;;;;;;;;;12821372;22;20023;-73
2023/11/15 15:52:13;;;;;;;4.75;4.28;;;;;;;;;;12821326;22;20039;-73
2023/11/15 15:57:09;;;;;;;8.63;5.53;;;;;;;;;;12794237;22;20122;-73
2023/11/15 16:02:06;;;;;;;4.60;4.20;;;;;;;;;;12818791;22;20047;-72
2023/11/15 16:07:04;;;;;;;4.60;4.20;;;;;;;;;;12791354;22;20054;-71
2023/11/15 16:12:00;;;;;;;4.80;4.40;;;;;;;;;;12821723;22;20066;-72
2023/11/15 16:16:56;;;;;;;4.80;4.20;;;;;;;;;;12820656;22;20030;-70
2023/11/15 16:21:53;;;;;;;5.25;4.75;;;;;;;;;;12820319;22;20019;-72
2023/11/15 16:26:49;;;;;;;4.82;4.10;;;;;;;;;;12822403;22;20024;-72
2023/11/15 16:31:45;;;;;;;5.97;4.57;;;;;;;;;;12814342;22;20351;-72
2023/11/15 16:36:43;;;;;;;4.85;4.13;;;;;;;;;;12794325;22;20527;-73
2023/11/15 16:41:49;;;;;;;7.03;4.80;;;;;;;;;;12793639;22;20023;-71
2023/11/15 16:46:47;;;;;;;5.35;4.85;;;;;;;;;;12797439;22;20027;-72
2023/11/15 16:51:44;;;;;;;9.50;5.43;;;;;;;;;;12823602;22;20030;-72
2023/11/15 16:56:46;;;;;;;6.85;5.07;;;;;;;;;;12822242;22;20408;-73
2023/11/15 17:01:43;;;;;;;;;;;;;;;;;;12825506;22;20027;-73
2023/11/15 17:06:39;;;;;;;7.57;5.35;;;;;;;;;;12818860;22;19916;-73
2023/11/15 17:11:36;;;;;;;8.95;5.85;;;;;;;;;;12823809;22;20023;-72
2023/11/15 17:16:32;;;;;;;9.60;6.15;;;;;;;;;;12833176;22;20050;-71
2023/11/15 17:21:29;;;;;;;7.13;6.38;;;;;;;;;;12822110;22;20060;-73
2023/11/15 17:26:27;;;;;;;7.57;6.28;;;;;;;;;;12814774;22;20027;-73
2023/11/15 17:31:24;;;;;;;7.70;6.32;;;;;;;;;;12818023;22;20050;-73
2023/11/15 17:36:20;;;;;;;9.13;6.57;;;;;;;;;;12820556;22;20031;-73
2023/11/15 17:41:19;;;;;;;9.23;6.95;;;;;;;;;;12822481;22;20027;-72
2023/11/15 17:46:15;;;;;;;11.18;7.00;;;;;;;;;;12820119;22;20317;-74
2023/11/15 17:51:12;;;;;;;9.75;7.85;;;;;;;;;;12796906;22;20106;-72
2023/11/15 17:56:08;;;;;;;8.68;7.30;;;;;;;;;;12798540;22;20106;-72
2023/11/15 18:01:08;;;;;;;10.00;7.35;;;;;;;;;;12819437;22;20423;-74
2023/11/15 18:06:05;;;;;;;9.93;7.45;;;;;;;;;;12818998;22;20058;-75
2023/11/15 18:11:03;;;;;;;11.95;8.15;;;;;;;;;;12818955;22;20035;-75
2023/11/15 18:16:01;;;;;;;10.38;7.90;;;;;;;;;;12812015;22;20028;-74
2023/11/15 18:20:57;;;;;;;9.88;7.88;;;;;;;;;;12819194;22;20094;-75
2023/11/15 18:25:53;;;;;;;8.48;7.65;;;;;;;;;;12820303;22;20015;-74
2023/11/15 18:30:53;;;;;;;8.48;7.57;;;;;;;;;;12819623;22;20049;-74
2023/11/15 18:35:50;;;;;;;13.18;8.23;;;;;;;;;;12792624;22;20027;-74
2023/11/15 18:40:47;;;;;;;14.10;8.82;;;;;;;;;;12819198;22;20406;-74
2023/11/15 18:45:44;;;;;;;10.48;8.27;;;;;;;;;;12816138;22;20069;-73
2023/11/15 18:50:40;;;;;;;10.25;8.52;;;;;;;;;;12818396;22;20050;-75
2023/11/15 18:55:37;;;;;;;11.75;8.27;;;;;;;;;;12794950;22;20027;-73
2023/11/15 19:00:36;;;;;;;9.13;8.23;;;;;;;;;;12820763;22;20027;-74
2023/11/15 19:05:33;;;;;;;13.38;8.02;;;;;;;;;;12815637;22;20031;-73
2023/11/15 19:10:32;;;;;;;11.05;8.52;;;;;;;;;;12821353;22;20019;-74
2023/11/15 19:15:29;;;;;;;10.40;8.25;;;;;;;;;;12822813;22;20023;-74
2023/11/15 19:20:28;;;;;;;12.00;7.80;;;;;;;;;;12821083;22;20126;-74
2023/11/15 19:25:25;;;;;;;10.27;8.32;;;;;;;;;;12821192;22;20019;-74
2023/11/15 19:30:23;;;;;;;12.80;8.85;;;;;;;;;;12819402;22;20035;-73
2023/11/15 19:35:19;;;;;;;11.20;7.72;;;;;;;;;;12810986;22;20031;-73
2023/11/15 19:40:18;;;;;;;14.95;8.35;;;;;;;;;;12788884;22;20422;-74
2023/11/15 19:45:16;;;;;;;14.55;8.10;;;;;;;;;;12818956;22;20094;-74
2023/11/15 19:50:13;;;;;;;14.13;7.22;;;;;;;;;;12817887;22;20023;-73
2023/11/15 19:55:13;;;;;;;13.73;7.40;;;;;;;;;;12818529;22;20072;-73
2023/11/15 20:00:10;;;;;;;17.42;7.32;;;;;;;;;;12815491;22;20023;-74
2023/11/15 20:05:08;;;;;;;14.55;6.47;;;;;;;;;;12813069;22;20016;-73
2023/11/15 20:10:10;;;;;;;13.10;6.45;;;;;;;;;;12815522;22;20468;-73
2023/11/15 20:15:09;;;;;;;10.90;6.37;;;;;;;;;;12817924;22;20052;-74
2023/11/15 20:20:09;;;;;;;11.93;5.80;;;;;;;;;;12816438;22;20072;-73
2023/11/15 20:25:06;;;;;;;11.13;5.50;;;;;;;;;;12809480;22;20088;-73
2023/11/15 20:30:03;;;;;;;9.25;5.60;;;;;;;;;;12817621;22;20089;-73
2023/11/15 20:35:00;;;;;;;12.77;5.82;;;;;;;;;;12818815;22;20353;-72
2023/11/15 20:39:56;;;;;;;11.88;5.80;;;;;;;;;;12815574;22;20033;-72
2023/11/15 20:44:54;;;;;;;11.20;5.88;;;;;;;;;;12809171;22;20456;-72
2023/11/15 20:49:51;;;;;;;11.48;6.03;;;;;;;;;;12816138;22;20571;-73
2023/11/15 20:54:48;;;;;;;12.13;5.82;;;;;;;;;;12814911;22;20027;-72
2023/11/15 20:59:44;;;;;;;12.80;6.45;;;;;;;;;;12817167;22;20081;-71
2023/11/15 21:04:40;;;;;;;15.77;6.28;;;;;;;;;;12817790;22;20408;-72
2023/11/15 21:09:38;;;;;;;11.35;6.15;;;;;;;;;;12817725;22;20031;-72
2023/11/15 21:14:35;;;;;;;16.35;6.15;;;;;;;;;;12818844;22;20031;-73
2023/11/15 21:19:32;;;;;;;12.40;5.78;;;;;;;;;;12815886;22;20223;-71
2023/11/15 21:24:29;;;;;;;11.52;6.03;;;;;;;;;;12807685;22;20016;-72
2023/11/15 21:29:25;;;;;;;17.67;6.22;;;;;;;;;;12834051;22;20395;-68
2023/11/15 21:34:21;;;;;;;13.07;5.22;;;;;;;;;;12814962;22;20035;-69
2023/11/15 21:39:18;;;;;;;10.48;5.50;;;;;;;;;;12793835;22;20345;-68
2023/11/15 21:44:16;;;;;;;16.65;6.18;;;;;;;;;;12816600;22;20046;-69
2023/11/15 21:49:13;;;;;;;10.50;5.88;;;;;;;;;;12810176;22;20031;-69
2023/11/15 21:54:09;;;;;;;15.65;5.53;;;;;;;;;;12819761;22;20284;-69
2023/11/15 21:59:06;;;;;;;12.80;6.45;;;;;;;;;;12818786;22;20512;-69
2023/11/15 22:04:02;;;;;;;12.55;5.72;;;;;;;;;;12791811;22;20246;-70
2023/11/15 22:08:59;;;;;;;12.98;5.40;;;;;;;;;;12818764;22;20613;-69
2023/11/15 22:13:56;;;;;;;11.95;5.15;;;;;;;;;;12819428;22;20020;-69
2023/11/15 22:18:52;;;;;;;11.48;4.97;;;;;;;;;;12792867;22;20019;-69
2023/11/15 22:23:48;;;;;;;19.17;5.20;;;;;;;;;;12818061;22;20043;-68
2023/11/15 22:28:45;;;;;;;11.05;5.20;;;;;;;;;;12818682;22;20472;-69
2023/11/15 22:33:41;;;;;;;9.00;5.22;;;;;;;;;;12819456;22;20030;-70
2023/11/15 22:38:37;;;;;;;13.05;5.97;;;;;;;;;;12813551;22;20050;-69
2023/11/15 22:43:33;;;;;;;12.55;5.68;;;;;;;;;;12818268;22;20027;-69
2023/11/15 22:48:30;;;;;;;17.20;5.07;;;;;;;;;;12813619;22;20022;-69
2023/11/15 22:53:26;;;;;;;12.38;4.85;;;;;;;;;;12818209;22;20023;-68
2023/11/15 22:58:23;;;;;;;11.07;5.45;;;;;;;;;;12819689;22;20491;-69
2023/11/15 23:03:19;;;;;;;12.27;5.30;;;;;;;;;;12819375;22;20481;-68
2023/11/15 23:08:16;;;;;;;12.93;5.00;;;;;;;;;;12818830;22;20027;-68
2023/11/15 23:13:15;;;;;;;14.23;5.38;;;;;;;;;;12819450;22;20023;-69
2023/11/15 23:18:13;;;;;;;16.05;6.50;;;;;;;;;;12818359;22;20019;-70
2023/11/15 23:23:11;;;;;;;15.07;6.28;;;;;;;;;;12816626;22;20077;-70
2023/11/15 23:28:08;;;;;;;12.18;6.40;;;;;;;;;;12818861;22;20027;-69
2023/11/15 23:33:07;;;;;;;17.30;6.72;;;;;;;;;;12792046;22;20111;-69
2023/11/15 23:38:05;;;;;;;9.40;6.32;;;;;;;;;;12819111;22;20038;-70
2023/11/15 23:43:01;;;;;;;11.88;6.47;;;;;;;;;;12812682;22;20027;-70
2023/11/15 23:47:58;;;;;;;13.05;6.47;;;;;;;;;;12818528;22;20034;-69
2023/11/15 23:52:55;;;;;;;10.50;5.93;;;;;;;;;;12811781;22;20027;-70
2023/11/15 23:57:53;;;;;;;10.60;5.80;;;;;;;;;;12817773;22;20026;-71
